sensor_id;sensor_type;location;lat;lon;timestamp;P1;durP1;ratioP1;P2;durP2;ratioP2
18265;SDS011;9259;48.194;16.322;2023-04-20T00:00:46;9.03;;;3.63;;
18265;SDS011;9259;48.194;16.322;2023-04-20T00:03:14;7.10;;;3.43;;
18265;SDS011;9259;48.194;16.322;2023-04-20T00:05:43;7.93;;;3.53;;
18265;SDS011;9259;48.194;16.322;2023-04-20T00:08:14;7.87;;;3.47;;
18265;SDS011;9259;48.194;16.322;2023-04-20T00:10:42;7.63;;;3.53;;
18265;SDS011;9259;48.194;16.322;2023-04-20T00:13:10;8.10;;;3.43;;
18265;SDS011;9259;48.194;16.322;2023-04-20T00:15:38;6.90;;;3.33;;
18265;SDS011;9259;48.194;16.322;2023-04-20T00:18:08;7.33;;;3.10;;
18265;SDS011;9259;48.194;16.322;2023-04-20T00:20:36;6.90;;;3.50;;
18265;SDS011;9259;48.194;16.322;2023-04-20T00:23:04;9.47;;;4.33;;
18265;SDS011;9259;48.194;16.322;2023-04-20T00:25:33;11.70;;;4.60;;
18265;SDS011;9259;48.194;16.322;2023-04-20T00:28:00;12.73;;;4.43;;
18265;SDS011;9259;48.194;16.322;2023-04-20T00:30:29;11.00;;;4.17;;
18265;SDS011;9259;48.194;16.322;2023-04-20T00:32:57;13.07;;;5.00;;
18265;SDS011;9259;48.194;16.322;2023-04-20T00:35:26;10.33;;;4.57;;
18265;SDS011;9259;48.194;16.322;2023-04-20T00:37:54;10.30;;;3.60;;
18265;SDS011;9259;48.194;16.322;2023-04-20T00:40:22;10.90;;;4.50;;
18265;SDS011;9259;48.194;16.322;2023-04-20T00:42:50;9.70;;;4.10;;
18265;SDS011;9259;48.194;16.322;2023-04-20T00:45:18;10.17;;;4.37;;
18265;SDS011;9259;48.194;16.322;2023-04-20T00:47:47;11.70;;;3.87;;
18265;SDS011;9259;48.194;16.322;2023-04-20T00:50:15;9.83;;;4.30;;
18265;SDS011;9259;48.194;16.322;2023-04-20T00:52:44;9.07;;;4.07;;
18265;SDS011;9259;48.194;16.322;2023-04-20T00:55:13;12.60;;;4.17;;
18265;SDS011;9259;48.194;16.322;2023-04-20T00:57:41;9.60;;;3.57;;
18265;SDS011;9259;48.194;16.322;2023-04-20T01:00:10;12.73;;;4.17;;
18265;SDS011;9259;48.194;16.322;2023-04-20T01:02:39;9.87;;;3.83;;
18265;SDS011;9259;48.194;16.322;2023-04-20T01:05:07;8.93;;;4.03;;
18265;SDS011;9259;48.194;16.322;2023-04-20T01:07:35;11.20;;;3.40;;
18265;SDS011;9259;48.194;16.322;2023-04-20T01:10:05;8.60;;;3.47;;
18265;SDS011;9259;48.194;16.322;2023-04-20T01:12:35;6.33;;;3.27;;
18265;SDS011;9259;48.194;16.322;2023-04-20T01:15:03;11.20;;;3.83;;
18265;SDS011;9259;48.194;16.322;2023-04-20T01:17:33;9.97;;;4.00;;
18265;SDS011;9259;48.194;16.322;2023-04-20T01:20:03;8.00;;;3.57;;
18265;SDS011;9259;48.194;16.322;2023-04-20T01:22:41;5.90;;;3.27;;
18265;SDS011;9259;48.194;16.322;2023-04-20T01:25:11;12.53;;;3.70;;
18265;SDS011;9259;48.194;16.322;2023-04-20T01:27:39;9.63;;;3.70;;
18265;SDS011;9259;48.194;16.322;2023-04-20T01:30:07;8.17;;;3.80;;
18265;SDS011;9259;48.194;16.322;2023-04-20T01:32:37;8.77;;;3.60;;
18265;SDS011;9259;48.194;16.322;2023-04-20T01:35:06;10.90;;;3.90;;
18265;SDS011;9259;48.194;16.322;2023-04-20T01:37:37;12.27;;;4.80;;
18265;SDS011;9259;48.194;16.322;2023-04-20T01:40:07;8.33;;;3.83;;
18265;SDS011;9259;48.194;16.322;2023-04-20T01:42:36;7.00;;;3.17;;
18265;SDS011;9259;48.194;16.322;2023-04-20T01:45:04;8.70;;;3.20;;
18265;SDS011;9259;48.194;16.322;2023-04-20T01:47:33;7.50;;;2.97;;
18265;SDS011;9259;48.194;16.322;2023-04-20T01:50:02;7.20;;;3.73;;
18265;SDS011;9259;48.194;16.322;2023-04-20T01:52:31;6.13;;;3.70;;
18265;SDS011;9259;48.194;16.322;2023-04-20T01:55:00;9.20;;;3.63;;
18265;SDS011;9259;48.194;16.322;2023-04-20T01:57:28;8.70;;;3.80;;
18265;SDS011;9259;48.194;16.322;2023-04-20T01:59:56;12.93;;;3.43;;
18265;SDS011;9259;48.194;16.322;2023-04-20T02:02:24;7.67;;;3.67;;
18265;SDS011;9259;48.194;16.322;2023-04-20T02:04:51;7.73;;;3.53;;
18265;SDS011;9259;48.194;16.322;2023-04-20T02:07:19;6.47;;;3.03;;
18265;SDS011;9259;48.194;16.322;2023-04-20T02:09:47;9.77;;;3.00;;
18265;SDS011;9259;48.194;16.322;2023-04-20T02:12:16;8.60;;;4.17;;
18265;SDS011;9259;48.194;16.322;2023-04-20T02:14:44;7.80;;;3.17;;
18265;SDS011;9259;48.194;16.322;2023-04-20T02:17:12;9.30;;;3.20;;
18265;SDS011;9259;48.194;16.322;2023-04-20T02:19:40;9.53;;;3.90;;
18265;SDS011;9259;48.194;16.322;2023-04-20T02:22:08;6.97;;;3.47;;
18265;SDS011;9259;48.194;16.322;2023-04-20T02:24:36;11.60;;;3.87;;
18265;SDS011;9259;48.194;16.322;2023-04-20T02:27:04;10.80;;;3.87;;
18265;SDS011;9259;48.194;16.322;2023-04-20T02:29:33;7.50;;;3.23;;
18265;SDS011;9259;48.194;16.322;2023-04-20T02:32:01;10.27;;;3.40;;
18265;SDS011;9259;48.194;16.322;2023-04-20T02:34:29;9.00;;;3.87;;
18265;SDS011;9259;48.194;16.322;2023-04-20T02:36:57;8.20;;;3.73;;
18265;SDS011;9259;48.194;16.322;2023-04-20T02:39:25;10.70;;;3.90;;
18265;SDS011;9259;48.194;16.322;2023-04-20T02:41:53;10.23;;;4.20;;
18265;SDS011;9259;48.194;16.322;2023-04-20T02:44:20;8.80;;;3.97;;
18265;SDS011;9259;48.194;16.322;2023-04-20T02:46:50;10.20;;;3.83;;
18265;SDS011;9259;48.194;16.322;2023-04-20T02:49:18;5.47;;;3.13;;
18265;SDS011;9259;48.194;16.322;2023-04-20T02:51:45;7.77;;;3.90;;
18265;SDS011;9259;48.194;16.322;2023-04-20T02:54:13;12.90;;;4.23;;
18265;SDS011;9259;48.194;16.322;2023-04-20T02:56:41;10.70;;;4.33;;
18265;SDS011;9259;48.194;16.322;2023-04-20T02:59:09;9.67;;;3.80;;
18265;SDS011;9259;48.194;16.322;2023-04-20T03:01:37;8.27;;;3.47;;
18265;SDS011;9259;48.194;16.322;2023-04-20T03:04:06;11.33;;;4.90;;
18265;SDS011;9259;48.194;16.322;2023-04-20T03:06:35;9.17;;;3.43;;
18265;SDS011;9259;48.194;16.322;2023-04-20T03:09:05;10.33;;;4.53;;
18265;SDS011;9259;48.194;16.322;2023-04-20T03:11:33;10.70;;;4.33;;
18265;SDS011;9259;48.194;16.322;2023-04-20T03:14:01;9.53;;;4.10;;
18265;SDS011;9259;48.194;16.322;2023-04-20T03:16:29;9.90;;;4.07;;
18265;SDS011;9259;48.194;16.322;2023-04-20T03:18:57;12.70;;;4.27;;
18265;SDS011;9259;48.194;16.322;2023-04-20T03:21:26;7.97;;;3.83;;
18265;SDS011;9259;48.194;16.322;2023-04-20T03:23:54;13.00;;;4.93;;
18265;SDS011;9259;48.194;16.322;2023-04-20T03:26:22;11.87;;;4.03;;
18265;SDS011;9259;48.194;16.322;2023-04-20T03:28:50;10.40;;;4.80;;
18265;SDS011;9259;48.194;16.322;2023-04-20T03:31:18;10.00;;;4.47;;
18265;SDS011;9259;48.194;16.322;2023-04-20T03:33:46;11.73;;;4.77;;
18265;SDS011;9259;48.194;16.322;2023-04-20T03:36:14;8.93;;;4.53;;
18265;SDS011;9259;48.194;16.322;2023-04-20T03:38:43;10.23;;;4.30;;
18265;SDS011;9259;48.194;16.322;2023-04-20T03:41:11;11.60;;;4.73;;
18265;SDS011;9259;48.194;16.322;2023-04-20T03:43:39;10.77;;;4.67;;
18265;SDS011;9259;48.194;16.322;2023-04-20T03:46:07;11.07;;;4.27;;
18265;SDS011;9259;48.194;16.322;2023-04-20T03:48:35;13.17;;;4.63;;
18265;SDS011;9259;48.194;16.322;2023-04-20T03:51:04;11.13;;;5.00;;
18265;SDS011;9259;48.194;16.322;2023-04-20T03:53:32;8.30;;;4.07;;
18265;SDS011;9259;48.194;16.322;2023-04-20T03:56:02;11.57;;;4.87;;
18265;SDS011;9259;48.194;16.322;2023-04-20T03:58:31;15.13;;;5.17;;
18265;SDS011;9259;48.194;16.322;2023-04-20T04:01:02;13.43;;;4.97;;
18265;SDS011;9259;48.194;16.322;2023-04-20T04:03:31;8.30;;;4.47;;
18265;SDS011;9259;48.194;16.322;2023-04-20T04:06:00;14.20;;;5.30;;
18265;SDS011;9259;48.194;16.322;2023-04-20T04:08:28;12.03;;;5.20;;
18265;SDS011;9259;48.194;16.322;2023-04-20T04:10:56;14.67;;;5.53;;
18265;SDS011;9259;48.194;16.322;2023-04-20T04:13:25;18.53;;;5.80;;
18265;SDS011;9259;48.194;16.322;2023-04-20T04:15:53;17.53;;;6.03;;
18265;SDS011;9259;48.194;16.322;2023-04-20T04:18:21;15.60;;;5.80;;
18265;SDS011;9259;48.194;16.322;2023-04-20T04:20:49;12.33;;;5.30;;
18265;SDS011;9259;48.194;16.322;2023-04-20T04:23:17;14.90;;;5.33;;
18265;SDS011;9259;48.194;16.322;2023-04-20T04:25:45;16.20;;;5.67;;
18265;SDS011;9259;48.194;16.322;2023-04-20T04:28:13;16.13;;;6.03;;
18265;SDS011;9259;48.194;16.322;2023-04-20T04:30:43;17.53;;;6.17;;
18265;SDS011;9259;48.194;16.322;2023-04-20T04:33:12;14.57;;;5.63;;
18265;SDS011;9259;48.194;16.322;2023-04-20T04:35:40;15.43;;;6.07;;
18265;SDS011;9259;48.194;16.322;2023-04-20T04:38:08;16.57;;;6.27;;
18265;SDS011;9259;48.194;16.322;2023-04-20T04:40:37;13.07;;;6.10;;
18265;SDS011;9259;48.194;16.322;2023-04-20T04:43:06;17.10;;;6.33;;
18265;SDS011;9259;48.194;16.322;2023-04-20T04:45:36;17.00;;;6.43;;
18265;SDS011;9259;48.194;16.322;2023-04-20T04:48:07;13.93;;;6.23;;
18265;SDS011;9259;48.194;16.322;2023-04-20T04:50:36;14.60;;;6.50;;
18265;SDS011;9259;48.194;16.322;2023-04-20T04:53:04;19.00;;;7.07;;
18265;SDS011;9259;48.194;16.322;2023-04-20T04:55:33;15.87;;;6.07;;
18265;SDS011;9259;48.194;16.322;2023-04-20T04:58:01;13.83;;;6.17;;
18265;SDS011;9259;48.194;16.322;2023-04-20T05:00:29;15.00;;;5.73;;
18265;SDS011;9259;48.194;16.322;2023-04-20T05:02:57;15.83;;;5.17;;
18265;SDS011;9259;48.194;16.322;2023-04-20T05:05:27;18.03;;;6.77;;
18265;SDS011;9259;48.194;16.322;2023-04-20T05:07:55;18.00;;;6.67;;
18265;SDS011;9259;48.194;16.322;2023-04-20T05:10:23;19.07;;;6.77;;
18265;SDS011;9259;48.194;16.322;2023-04-20T05:12:50;17.93;;;6.83;;
18265;SDS011;9259;48.194;16.322;2023-04-20T05:15:18;20.40;;;6.63;;
18265;SDS011;9259;48.194;16.322;2023-04-20T05:17:46;19.63;;;7.53;;
18265;SDS011;9259;48.194;16.322;2023-04-20T05:20:15;18.00;;;6.80;;
18265;SDS011;9259;48.194;16.322;2023-04-20T05:22:45;16.87;;;6.33;;
18265;SDS011;9259;48.194;16.322;2023-04-20T05:25:12;15.33;;;6.93;;
18265;SDS011;9259;48.194;16.322;2023-04-20T05:27:40;18.03;;;7.57;;
18265;SDS011;9259;48.194;16.322;2023-04-20T05:30:08;20.47;;;6.80;;
18265;SDS011;9259;48.194;16.322;2023-04-20T05:32:37;13.83;;;5.60;;
18265;SDS011;9259;48.194;16.322;2023-04-20T05:35:05;14.93;;;5.57;;
18265;SDS011;9259;48.194;16.322;2023-04-20T05:37:34;16.17;;;6.60;;
18265;SDS011;9259;48.194;16.322;2023-04-20T05:40:04;13.57;;;5.77;;
18265;SDS011;9259;48.194;16.322;2023-04-20T05:42:34;20.20;;;7.47;;
18265;SDS011;9259;48.194;16.322;2023-04-20T05:45:02;17.33;;;6.63;;
18265;SDS011;9259;48.194;16.322;2023-04-20T05:47:30;17.70;;;6.20;;
18265;SDS011;9259;48.194;16.322;2023-04-20T05:49:58;16.93;;;6.10;;
18265;SDS011;9259;48.194;16.322;2023-04-20T05:52:26;16.63;;;6.80;;
18265;SDS011;9259;48.194;16.322;2023-04-20T05:54:54;14.17;;;6.43;;
18265;SDS011;9259;48.194;16.322;2023-04-20T05:57:23;16.83;;;6.50;;
18265;SDS011;9259;48.194;16.322;2023-04-20T05:59:51;16.43;;;6.40;;
18265;SDS011;9259;48.194;16.322;2023-04-20T06:02:20;20.47;;;7.73;;
18265;SDS011;9259;48.194;16.322;2023-04-20T06:04:48;16.13;;;6.60;;
18265;SDS011;9259;48.194;16.322;2023-04-20T06:07:16;17.47;;;7.03;;
18265;SDS011;9259;48.194;16.322;2023-04-20T06:09:44;13.27;;;5.93;;
18265;SDS011;9259;48.194;16.322;2023-04-20T06:12:11;15.83;;;6.67;;
18265;SDS011;9259;48.194;16.322;2023-04-20T06:14:41;17.00;;;6.60;;
18265;SDS011;9259;48.194;16.322;2023-04-20T06:17:09;16.93;;;7.27;;
18265;SDS011;9259;48.194;16.322;2023-04-20T06:19:36;17.87;;;6.47;;
18265;SDS011;9259;48.194;16.322;2023-04-20T06:22:05;15.30;;;5.50;;
18265;SDS011;9259;48.194;16.322;2023-04-20T06:24:33;14.00;;;5.53;;
18265;SDS011;9259;48.194;16.322;2023-04-20T06:27:01;17.53;;;6.90;;
18265;SDS011;9259;48.194;16.322;2023-04-20T06:29:29;12.97;;;6.40;;
18265;SDS011;9259;48.194;16.322;2023-04-20T06:31:59;20.50;;;6.20;;
18265;SDS011;9259;48.194;16.322;2023-04-20T06:34:26;18.63;;;7.43;;
18265;SDS011;9259;48.194;16.322;2023-04-20T06:36:54;15.83;;;6.60;;
18265;SDS011;9259;48.194;16.322;2023-04-20T06:39:22;16.10;;;6.27;;
18265;SDS011;9259;48.194;16.322;2023-04-20T06:41:50;17.27;;;6.17;;
18265;SDS011;9259;48.194;16.322;2023-04-20T06:44:18;15.30;;;5.97;;
18265;SDS011;9259;48.194;16.322;2023-04-20T06:46:46;18.67;;;6.87;;
18265;SDS011;9259;48.194;16.322;2023-04-20T06:49:15;17.77;;;6.70;;
18265;SDS011;9259;48.194;16.322;2023-04-20T06:51:43;17.73;;;6.30;;
18265;SDS011;9259;48.194;16.322;2023-04-20T06:54:11;17.33;;;6.47;;
18265;SDS011;9259;48.194;16.322;2023-04-20T06:56:38;17.03;;;6.80;;
18265;SDS011;9259;48.194;16.322;2023-04-20T06:59:06;16.70;;;6.77;;
18265;SDS011;9259;48.194;16.322;2023-04-20T07:01:34;17.80;;;6.10;;
18265;SDS011;9259;48.194;16.322;2023-04-20T07:04:02;17.17;;;7.27;;
18265;SDS011;9259;48.194;16.322;2023-04-20T07:06:31;17.67;;;6.87;;
18265;SDS011;9259;48.194;16.322;2023-04-20T07:08:59;16.73;;;6.27;;
18265;SDS011;9259;48.194;16.322;2023-04-20T07:11:28;13.30;;;6.13;;
18265;SDS011;9259;48.194;16.322;2023-04-20T07:13:56;15.73;;;6.17;;
18265;SDS011;9259;48.194;16.322;2023-04-20T07:16:24;18.20;;;7.47;;
18265;SDS011;9259;48.194;16.322;2023-04-20T07:18:53;14.80;;;6.90;;
18265;SDS011;9259;48.194;16.322;2023-04-20T07:21:21;14.73;;;6.43;;
18265;SDS011;9259;48.194;16.322;2023-04-20T07:23:50;17.53;;;6.03;;
18265;SDS011;9259;48.194;16.322;2023-04-20T07:26:18;17.00;;;7.50;;
18265;SDS011;9259;48.194;16.322;2023-04-20T07:28:46;13.40;;;5.60;;
18265;SDS011;9259;48.194;16.322;2023-04-20T07:31:14;14.03;;;5.93;;
18265;SDS011;9259;48.194;16.322;2023-04-20T07:33:41;15.70;;;6.63;;
18265;SDS011;9259;48.194;16.322;2023-04-20T07:36:09;14.90;;;6.60;;
18265;SDS011;9259;48.194;16.322;2023-04-20T07:38:37;15.07;;;6.73;;
18265;SDS011;9259;48.194;16.322;2023-04-20T07:41:08;15.53;;;5.97;;
18265;SDS011;9259;48.194;16.322;2023-04-20T07:43:36;17.33;;;7.10;;
18265;SDS011;9259;48.194;16.322;2023-04-20T07:46:04;17.47;;;6.80;;
18265;SDS011;9259;48.194;16.322;2023-04-20T07:48:32;18.10;;;6.97;;
18265;SDS011;9259;48.194;16.322;2023-04-20T07:51:00;17.83;;;7.07;;
18265;SDS011;9259;48.194;16.322;2023-04-20T07:53:28;17.97;;;8.27;;
18265;SDS011;9259;48.194;16.322;2023-04-20T07:55:56;14.77;;;6.30;;
18265;SDS011;9259;48.194;16.322;2023-04-20T07:58:25;16.00;;;6.53;;
18265;SDS011;9259;48.194;16.322;2023-04-20T08:00:53;16.20;;;6.67;;
18265;SDS011;9259;48.194;16.322;2023-04-20T08:03:21;14.40;;;6.13;;
18265;SDS011;9259;48.194;16.322;2023-04-20T08:05:49;20.93;;;8.13;;
18265;SDS011;9259;48.194;16.322;2023-04-20T08:08:16;18.53;;;7.27;;
18265;SDS011;9259;48.194;16.322;2023-04-20T08:10:44;19.27;;;8.37;;
18265;SDS011;9259;48.194;16.322;2023-04-20T08:13:12;15.37;;;6.97;;
18265;SDS011;9259;48.194;16.322;2023-04-20T08:15:42;13.07;;;6.03;;
18265;SDS011;9259;48.194;16.322;2023-04-20T08:18:10;19.47;;;7.87;;
18265;SDS011;9259;48.194;16.322;2023-04-20T08:20:37;15.37;;;7.00;;
18265;SDS011;9259;48.194;16.322;2023-04-20T08:23:05;13.77;;;5.93;;
18265;SDS011;9259;48.194;16.322;2023-04-20T08:25:33;16.53;;;6.83;;
18265;SDS011;9259;48.194;16.322;2023-04-20T08:28:01;16.07;;;7.20;;
18265;SDS011;9259;48.194;16.322;2023-04-20T08:30:30;15.73;;;6.70;;
18265;SDS011;9259;48.194;16.322;2023-04-20T08:32:59;17.50;;;6.47;;
18265;SDS011;9259;48.194;16.322;2023-04-20T08:35:27;16.53;;;6.60;;
18265;SDS011;9259;48.194;16.322;2023-04-20T08:37:54;14.13;;;6.80;;
18265;SDS011;9259;48.194;16.322;2023-04-20T08:40:22;16.43;;;7.10;;
18265;SDS011;9259;48.194;16.322;2023-04-20T08:42:53;17.63;;;7.07;;
18265;SDS011;9259;48.194;16.322;2023-04-20T08:45:20;17.13;;;6.77;;
18265;SDS011;9259;48.194;16.322;2023-04-20T08:47:48;14.80;;;6.07;;
18265;SDS011;9259;48.194;16.322;2023-04-20T08:50:18;16.27;;;7.20;;
18265;SDS011;9259;48.194;16.322;2023-04-20T08:52:47;18.23;;;7.30;;
18265;SDS011;9259;48.194;16.322;2023-04-20T08:55:14;17.20;;;7.57;;
18265;SDS011;9259;48.194;16.322;2023-04-20T08:57:43;15.30;;;6.43;;
18265;SDS011;9259;48.194;16.322;2023-04-20T09:00:11;15.67;;;6.87;;
18265;SDS011;9259;48.194;16.322;2023-04-20T09:02:47;15.27;;;7.07;;
18265;SDS011;9259;48.194;16.322;2023-04-20T09:05:24;15.10;;;6.97;;
18265;SDS011;9259;48.194;16.322;2023-04-20T09:07:54;15.88;;;6.60;;
18265;SDS011;9259;48.194;16.322;2023-04-20T09:10:24;15.18;;;7.15;;
18265;SDS011;9259;48.194;16.322;2023-04-20T09:12:53;12.65;;;6.28;;
18265;SDS011;9259;48.194;16.322;2023-04-20T09:15:24;15.90;;;7.32;;
18265;SDS011;9259;48.194;16.322;2023-04-20T09:17:54;16.75;;;7.88;;
18265;SDS011;9259;48.194;16.322;2023-04-20T09:20:27;17.30;;;6.82;;
18265;SDS011;9259;48.194;16.322;2023-04-20T09:22:56;14.25;;;6.13;;
18265;SDS011;9259;48.194;16.322;2023-04-20T09:25:24;17.00;;;7.80;;
18265;SDS011;9259;48.194;16.322;2023-04-20T09:27:56;13.65;;;6.80;;
18265;SDS011;9259;48.194;16.322;2023-04-20T09:30:24;13.95;;;6.72;;
18265;SDS011;9259;48.194;16.322;2023-04-20T09:33:03;13.82;;;6.60;;
18265;SDS011;9259;48.194;16.322;2023-04-20T09:35:34;15.10;;;7.57;;
18265;SDS011;9259;48.194;16.322;2023-04-20T09:38:03;16.23;;;7.15;;
18265;SDS011;9259;48.194;16.322;2023-04-20T09:40:30;14.88;;;7.45;;
18265;SDS011;9259;48.194;16.322;2023-04-20T09:43:02;16.95;;;6.80;;
18265;SDS011;9259;48.194;16.322;2023-04-20T09:45:36;15.75;;;7.28;;
18265;SDS011;9259;48.194;16.322;2023-04-20T09:48:05;14.00;;;7.10;;
18265;SDS011;9259;48.194;16.322;2023-04-20T09:50:35;16.15;;;7.20;;
18265;SDS011;9259;48.194;16.322;2023-04-20T09:53:04;11.10;;;5.40;;
18265;SDS011;9259;48.194;16.322;2023-04-20T09:55:32;18.50;;;7.40;;
18265;SDS011;9259;48.194;16.322;2023-04-20T09:58:01;13.68;;;6.32;;
18265;SDS011;9259;48.194;16.322;2023-04-20T10:00:31;16.42;;;7.53;;
18265;SDS011;9259;48.194;16.322;2023-04-20T10:02:58;14.60;;;6.68;;
18265;SDS011;9259;48.194;16.322;2023-04-20T10:05:32;14.90;;;6.72;;
18265;SDS011;9259;48.194;16.322;2023-04-20T10:08:03;17.05;;;7.57;;
18265;SDS011;9259;48.194;16.322;2023-04-20T10:10:43;13.73;;;6.70;;
18265;SDS011;9259;48.194;16.322;2023-04-20T10:13:13;16.75;;;7.28;;
18265;SDS011;9259;48.194;16.322;2023-04-20T10:15:44;14.65;;;6.65;;
18265;SDS011;9259;48.194;16.322;2023-04-20T10:18:15;18.58;;;7.18;;
18265;SDS011;9259;48.194;16.322;2023-04-20T10:20:49;16.00;;;6.75;;
18265;SDS011;9259;48.194;16.322;2023-04-20T10:23:19;15.63;;;6.90;;
18265;SDS011;9259;48.194;16.322;2023-04-20T10:25:54;13.63;;;6.68;;
18265;SDS011;9259;48.194;16.322;2023-04-20T10:28:23;17.25;;;6.88;;
18265;SDS011;9259;48.194;16.322;2023-04-20T10:30:51;12.60;;;6.35;;
18265;SDS011;9259;48.194;16.322;2023-04-20T10:33:19;12.35;;;6.13;;
18265;SDS011;9259;48.194;16.322;2023-04-20T10:35:49;11.63;;;5.45;;
18265;SDS011;9259;48.194;16.322;2023-04-20T10:38:30;15.38;;;6.88;;
18265;SDS011;9259;48.194;16.322;2023-04-20T10:41:04;16.38;;;6.38;;
18265;SDS011;9259;48.194;16.322;2023-04-20T10:43:33;13.52;;;6.18;;
18265;SDS011;9259;48.194;16.322;2023-04-20T10:46:11;12.75;;;6.32;;
18265;SDS011;9259;48.194;16.322;2023-04-20T10:48:48;11.38;;;6.03;;
18265;SDS011;9259;48.194;16.322;2023-04-20T10:51:17;14.25;;;6.45;;
18265;SDS011;9259;48.194;16.322;2023-04-20T10:53:57;14.05;;;6.50;;
18265;SDS011;9259;48.194;16.322;2023-04-20T10:56:37;12.25;;;5.72;;
18265;SDS011;9259;48.194;16.322;2023-04-20T10:59:06;12.15;;;6.40;;
18265;SDS011;9259;48.194;16.322;2023-04-20T11:01:34;12.60;;;5.72;;
18265;SDS011;9259;48.194;16.322;2023-04-20T11:04:02;13.15;;;6.00;;
18265;SDS011;9259;48.194;16.322;2023-04-20T11:06:31;13.52;;;6.30;;
18265;SDS011;9259;48.194;16.322;2023-04-20T11:09:02;11.68;;;5.75;;
18265;SDS011;9259;48.194;16.322;2023-04-20T11:11:30;13.10;;;6.20;;
18265;SDS011;9259;48.194;16.322;2023-04-20T11:14:05;13.15;;;5.63;;
18265;SDS011;9259;48.194;16.322;2023-04-20T11:16:34;13.90;;;5.85;;
18265;SDS011;9259;48.194;16.322;2023-04-20T11:19:02;9.55;;;4.85;;
18265;SDS011;9259;48.194;16.322;2023-04-20T11:21:34;11.18;;;5.70;;
18265;SDS011;9259;48.194;16.322;2023-04-20T11:24:05;12.98;;;5.65;;
18265;SDS011;9259;48.194;16.322;2023-04-20T11:26:43;14.10;;;5.95;;
18265;SDS011;9259;48.194;16.322;2023-04-20T11:29:25;11.68;;;6.35;;
18265;SDS011;9259;48.194;16.322;2023-04-20T11:31:54;13.40;;;6.53;;
18265;SDS011;9259;48.194;16.322;2023-04-20T11:34:22;12.00;;;5.57;;
18265;SDS011;9259;48.194;16.322;2023-04-20T11:36:51;14.98;;;6.28;;
18265;SDS011;9259;48.194;16.322;2023-04-20T11:39:23;12.15;;;5.22;;
18265;SDS011;9259;48.194;16.322;2023-04-20T11:41:51;12.73;;;6.22;;
18265;SDS011;9259;48.194;16.322;2023-04-20T11:44:21;10.85;;;5.35;;
18265;SDS011;9259;48.194;16.322;2023-04-20T11:46:50;10.18;;;5.75;;
18265;SDS011;9259;48.194;16.322;2023-04-20T11:49:19;12.07;;;5.97;;
18265;SDS011;9259;48.194;16.322;2023-04-20T11:51:47;8.77;;;4.78;;
18265;SDS011;9259;48.194;16.322;2023-04-20T11:54:15;12.80;;;6.40;;
18265;SDS011;9259;48.194;16.322;2023-04-20T11:56:46;12.35;;;5.88;;
18265;SDS011;9259;48.194;16.322;2023-04-20T11:59:14;11.52;;;5.30;;
18265;SDS011;9259;48.194;16.322;2023-04-20T12:01:44;12.27;;;6.13;;
18265;SDS011;9259;48.194;16.322;2023-04-20T12:04:12;14.55;;;5.43;;
18265;SDS011;9259;48.194;16.322;2023-04-20T12:06:40;11.70;;;5.82;;
18265;SDS011;9259;48.194;16.322;2023-04-20T12:09:08;12.38;;;5.53;;
18265;SDS011;9259;48.194;16.322;2023-04-20T12:11:38;10.05;;;5.22;;
18265;SDS011;9259;48.194;16.322;2023-04-20T12:14:07;9.30;;;5.13;;
18265;SDS011;9259;48.194;16.322;2023-04-20T12:16:35;10.38;;;5.07;;
18265;SDS011;9259;48.194;16.322;2023-04-20T12:19:03;9.43;;;4.60;;
18265;SDS011;9259;48.194;16.322;2023-04-20T12:21:31;10.55;;;5.65;;
18265;SDS011;9259;48.194;16.322;2023-04-20T12:23:59;12.15;;;5.40;;
18265;SDS011;9259;48.194;16.322;2023-04-20T12:26:27;11.20;;;5.68;;
18265;SDS011;9259;48.194;16.322;2023-04-20T12:28:56;11.30;;;5.63;;
18265;SDS011;9259;48.194;16.322;2023-04-20T12:31:26;9.90;;;5.10;;
18265;SDS011;9259;48.194;16.322;2023-04-20T12:33:54;10.00;;;5.07;;
18265;SDS011;9259;48.194;16.322;2023-04-20T12:36:22;11.20;;;5.32;;
18265;SDS011;9259;48.194;16.322;2023-04-20T12:38:50;10.77;;;5.68;;
18265;SDS011;9259;48.194;16.322;2023-04-20T12:41:20;10.50;;;5.07;;
18265;SDS011;9259;48.194;16.322;2023-04-20T12:43:48;11.82;;;4.95;;
18265;SDS011;9259;48.194;16.322;2023-04-20T12:46:16;10.38;;;5.13;;
18265;SDS011;9259;48.194;16.322;2023-04-20T12:48:46;11.50;;;5.13;;
18265;SDS011;9259;48.194;16.322;2023-04-20T12:51:14;8.60;;;4.85;;
18265;SDS011;9259;48.194;16.322;2023-04-20T12:53:42;8.20;;;4.68;;
18265;SDS011;9259;48.194;16.322;2023-04-20T12:56:10;7.32;;;3.58;;
18265;SDS011;9259;48.194;16.322;2023-04-20T12:58:38;9.63;;;4.22;;
18265;SDS011;9259;48.194;16.322;2023-04-20T13:01:06;11.10;;;5.30;;
18265;SDS011;9259;48.194;16.322;2023-04-20T13:03:34;9.90;;;5.00;;
18265;SDS011;9259;48.194;16.322;2023-04-20T13:06:04;10.65;;;5.30;;
18265;SDS011;9259;48.194;16.322;2023-04-20T13:08:32;10.93;;;5.60;;
18265;SDS011;9259;48.194;16.322;2023-04-20T13:11:01;9.98;;;5.35;;
18265;SDS011;9259;48.194;16.322;2023-04-20T13:13:31;9.20;;;4.78;;
18265;SDS011;9259;48.194;16.322;2023-04-20T13:15:59;10.43;;;5.10;;
18265;SDS011;9259;48.194;16.322;2023-04-20T13:18:27;10.25;;;5.47;;
18265;SDS011;9259;48.194;16.322;2023-04-20T13:20:55;9.40;;;5.15;;
18265;SDS011;9259;48.194;16.322;2023-04-20T13:23:24;11.40;;;4.70;;
18265;SDS011;9259;48.194;16.322;2023-04-20T13:25:53;9.00;;;5.10;;
18265;SDS011;9259;48.194;16.322;2023-04-20T13:28:24;7.38;;;4.05;;
18265;SDS011;9259;48.194;16.322;2023-04-20T13:30:52;7.50;;;4.10;;
18265;SDS011;9259;48.194;16.322;2023-04-20T13:33:22;6.97;;;4.03;;
18265;SDS011;9259;48.194;16.322;2023-04-20T13:35:50;8.20;;;4.45;;
18265;SDS011;9259;48.194;16.322;2023-04-20T13:38:18;9.10;;;4.20;;
18265;SDS011;9259;48.194;16.322;2023-04-20T13:40:47;9.82;;;4.78;;
18265;SDS011;9259;48.194;16.322;2023-04-20T13:43:15;7.70;;;4.30;;
18265;SDS011;9259;48.194;16.322;2023-04-20T13:45:43;6.50;;;4.00;;
18265;SDS011;9259;48.194;16.322;2023-04-20T13:48:11;8.35;;;4.57;;
18265;SDS011;9259;48.194;16.322;2023-04-20T13:50:39;7.53;;;4.00;;
18265;SDS011;9259;48.194;16.322;2023-04-20T13:53:07;12.48;;;5.03;;
18265;SDS011;9259;48.194;16.322;2023-04-20T13:55:36;9.85;;;4.82;;
18265;SDS011;9259;48.194;16.322;2023-04-20T13:58:05;10.50;;;5.43;;
18265;SDS011;9259;48.194;16.322;2023-04-20T14:00:33;8.75;;;3.83;;
18265;SDS011;9259;48.194;16.322;2023-04-20T14:03:01;9.38;;;4.72;;
18265;SDS011;9259;48.194;16.322;2023-04-20T14:05:30;7.03;;;3.70;;
18265;SDS011;9259;48.194;16.322;2023-04-20T14:07:58;8.82;;;4.72;;
18265;SDS011;9259;48.194;16.322;2023-04-20T14:10:26;6.70;;;3.28;;
18265;SDS011;9259;48.194;16.322;2023-04-20T14:12:55;8.80;;;4.32;;
18265;SDS011;9259;48.194;16.322;2023-04-20T14:15:24;9.05;;;4.13;;
18265;SDS011;9259;48.194;16.322;2023-04-20T14:17:52;9.40;;;4.47;;
18265;SDS011;9259;48.194;16.322;2023-04-20T14:20:20;8.43;;;4.82;;
18265;SDS011;9259;48.194;16.322;2023-04-20T14:22:48;9.32;;;4.70;;
18265;SDS011;9259;48.194;16.322;2023-04-20T14:25:16;8.48;;;3.63;;
18265;SDS011;9259;48.194;16.322;2023-04-20T14:27:45;6.40;;;3.38;;
18265;SDS011;9259;48.194;16.322;2023-04-20T14:30:13;7.80;;;3.58;;
18265;SDS011;9259;48.194;16.322;2023-04-20T14:32:52;9.57;;;4.22;;
18265;SDS011;9259;48.194;16.322;2023-04-20T14:35:21;7.85;;;3.65;;
18265;SDS011;9259;48.194;16.322;2023-04-20T14:37:49;8.40;;;3.75;;
18265;SDS011;9259;48.194;16.322;2023-04-20T14:40:17;8.10;;;4.00;;
18265;SDS011;9259;48.194;16.322;2023-04-20T14:42:45;9.02;;;4.45;;
18265;SDS011;9259;48.194;16.322;2023-04-20T14:45:14;8.20;;;4.07;;
18265;SDS011;9259;48.194;16.322;2023-04-20T14:47:42;8.55;;;4.53;;